createdAt,value
2019-03-11T00:00:04.231Z,67.01
2019-03-11T00:02:32.717Z,66.54
2019-03-11T00:05:01.097Z,65.36
2019-03-11T00:07:29.484Z,64.20
2019-03-11T00:09:57.869Z,64.93
2019-03-11T00:12:26.260Z,64.34
2019-03-11T00:14:54.632Z,64.94
2019-03-11T00:17:23.166Z,62.78
2019-03-11T00:19:51.592Z,63.19
2019-03-11T00:22:19.961Z,64.22
2019-03-11T00:24:48.341Z,63.46
2019-03-11T00:27:16.750Z,64.38
2019-03-11T00:29:45.140Z,64.01
2019-03-11T00:32:13.553Z,63.82
2019-03-11T00:34:41.904Z,63.55
2019-03-11T00:37:10.302Z,63.97
2019-03-11T00:39:38.682Z,64.21
2019-03-11T00:42:07.064Z,63.72
2019-03-11T00:44:35.446Z,63.95
2019-03-11T00:47:03.967Z,63.81
2019-03-11T00:49:32.357Z,63.80
2019-03-11T00:52:00.741Z,63.69
2019-03-11T00:54:29.143Z,63.78
2019-03-11T00:56:57.532Z,64.23
2019-03-11T00:59:25.909Z,63.62
2019-03-11T01:01:54.293Z,64.61
2019-03-11T01:04:22.682Z,63.77
2019-03-11T01:06:51.061Z,64.08
2019-03-11T01:09:19.482Z,64.49
2019-03-11T01:11:47.852Z,64.70
2019-03-11T01:14:16.317Z,64.67
2019-03-11T01:16:44.740Z,64.68
2019-03-11T01:19:13.140Z,65.12
2019-03-11T01:21:41.530Z,64.81
2019-03-11T01:24:09.912Z,64.79
2019-03-11T01:26:38.352Z,64.97
2019-03-11T01:29:06.759Z,64.77
2019-03-11T01:31:35.125Z,64.24
2019-03-11T01:34:03.517Z,64.39
2019-03-11T01:36:31.920Z,63.92
2019-03-11T01:39:00.331Z,63.45
2019-03-11T01:41:28.708Z,63.65
2019-03-11T01:43:57.178Z,64.10
2019-03-11T01:46:25.581Z,63.55
2019-03-11T01:48:53.990Z,63.85
2019-03-11T01:51:22.448Z,64.28
2019-03-11T01:53:50.823Z,64.24
2019-03-11T01:56:19.201Z,64.62
2019-03-11T01:58:47.578Z,64.76
2019-03-11T02:01:15.960Z,64.79
2019-03-11T02:03:44.376Z,65.24
2019-03-11T02:06:12.761Z,65.13
2019-03-11T02:08:41.143Z,65.26
2019-03-11T02:11:09.522Z,65.36
2019-03-11T02:13:37.903Z,65.19
2019-03-11T02:16:06.310Z,65.83
2019-03-11T02:18:34.690Z,65.12
2019-03-11T02:21:03.186Z,65.52
2019-03-11T02:23:31.664Z,65.36
2019-03-11T02:26:00.054Z,65.36
2019-03-11T02:28:28.498Z,65.29
2019-03-11T02:30:56.881Z,65.34
2019-03-11T02:33:25.254Z,64.93
2019-03-11T02:35:53.638Z,64.91
2019-03-11T02:38:22.057Z,65.28
2019-03-11T02:40:50.459Z,63.94
2019-03-11T02:43:18.845Z,64.16
2019-03-11T02:45:47.241Z,64.14
2019-03-11T02:48:15.699Z,63.70
2019-03-11T02:50:44.076Z,63.80
2019-03-11T02:53:12.533Z,63.42
2019-03-11T02:55:40.918Z,63.47
2019-03-11T02:58:09.291Z,63.71
2019-03-11T03:00:37.662Z,63.56
2019-03-11T03:03:07.688Z,63.58
2019-03-11T03:05:37.702Z,63.16
2019-03-11T03:08:06.083Z,63.33
2019-03-11T03:10:34.538Z,63.32
2019-03-11T03:13:02.959Z,63.47
2019-03-11T03:15:31.327Z,63.18
2019-03-11T03:17:59.717Z,61.98
2019-03-11T03:20:28.100Z,61.72
2019-03-11T03:22:56.487Z,61.24
2019-03-11T03:25:33.745Z,61.14
2019-03-11T03:27:55.132Z,60.58
2019-03-11T03:30:23.655Z,60.19
2019-03-11T03:32:52.022Z,60.00
2019-03-11T03:35:20.406Z,59.49
2019-03-11T03:37:48.803Z,59.19
2019-03-11T03:40:17.278Z,59.00
2019-03-11T03:42:45.854Z,58.97
2019-03-11T03:45:24.999Z,58.80
2019-03-11T03:47:53.499Z,58.70
2019-03-11T03:50:24.900Z,58.33
2019-03-11T03:52:53.289Z,58.38
2019-03-11T03:55:21.672Z,58.01
2019-03-11T03:57:50.078Z,57.85
2019-03-11T04:00:18.456Z,57.33
2019-03-11T04:02:46.866Z,57.53
2019-03-11T04:05:15.274Z,57.28
2019-03-11T04:07:43.663Z,57.45
2019-03-11T04:10:16.433Z,57.68
2019-03-11T04:12:45.008Z,57.44
2019-03-11T04:15:13.630Z,57.59
2019-03-11T04:17:42.154Z,57.90
2019-03-11T04:20:19.275Z,57.72
2019-03-11T04:22:47.681Z,57.51
2019-03-11T04:25:16.220Z,57.07
2019-03-11T04:27:44.734Z,57.22
2019-03-11T04:30:18.211Z,56.46
2019-03-11T04:32:46.618Z,56.33
2019-03-11T04:35:15.046Z,56.27
2019-03-11T04:37:43.456Z,55.85
2019-03-11T04:40:13.667Z,56.31
2019-03-11T04:42:42.123Z,56.36
2019-03-11T04:45:17.364Z,56.48
2019-03-11T04:47:45.757Z,56.63
2019-03-11T04:50:19.130Z,56.75
2019-03-11T04:52:48.637Z,56.30
2019-03-11T04:55:17.490Z,56.30
2019-03-11T04:57:55.717Z,56.09
2019-03-11T05:00:32.213Z,56.14
2019-03-11T05:03:00.635Z,55.36
2019-03-11T05:05:28.974Z,56.23
2019-03-11T05:07:57.379Z,56.06
2019-03-11T05:10:25.763Z,56.10
2019-03-11T05:12:54.158Z,56.06
2019-03-11T05:15:23.527Z,55.73
2019-03-11T05:17:52.009Z,55.27
2019-03-11T05:20:20.538Z,55.42
2019-03-11T05:22:48.999Z,55.36
2019-03-11T05:25:17.380Z,55.96
2019-03-11T05:27:45.764Z,56.21
2019-03-11T05:30:17.949Z,56.13
2019-03-11T05:32:47.381Z,56.07
2019-03-11T05:35:15.912Z,56.26
2019-03-11T05:37:44.291Z,55.88
2019-03-11T05:40:17.371Z,55.97
2019-03-11T05:42:45.753Z,56.14
2019-03-11T05:45:17.188Z,56.32
2019-03-11T05:47:45.650Z,57.04
2019-03-11T05:50:15.277Z,58.12
2019-03-11T05:52:43.826Z,58.48
2019-03-11T05:55:13.053Z,58.96
2019-03-11T05:57:41.632Z,59.06
2019-03-11T06:00:22.739Z,58.48
2019-03-11T06:02:51.099Z,58.81
2019-03-11T06:05:19.482Z,58.33
2019-03-11T06:07:47.855Z,58.94
2019-03-11T06:10:16.639Z,58.68
2019-03-11T06:12:45.115Z,58.67
2019-03-11T06:15:16.689Z,59.17
2019-03-11T06:17:45.302Z,58.97
2019-03-11T06:20:35.255Z,59.14
2019-03-11T06:23:08.180Z,58.73
2019-03-11T06:25:36.557Z,58.05
2019-03-11T06:28:04.978Z,58.08
2019-03-11T06:30:33.730Z,58.20
2019-03-11T06:33:02.125Z,57.90
2019-03-11T06:35:30.509Z,58.36
2019-03-11T06:37:58.986Z,58.34
2019-03-11T06:40:27.448Z,59.56
2019-03-11T06:42:55.823Z,60.61
2019-03-11T06:45:24.210Z,60.87
2019-03-11T06:47:52.594Z,61.13
2019-03-11T06:50:20.995Z,61.20
2019-03-11T06:52:49.379Z,60.88
2019-03-11T06:55:17.762Z,60.54
2019-03-11T06:57:46.199Z,60.70
2019-03-11T07:00:21.543Z,60.05
2019-03-11T07:02:49.938Z,60.00
2019-03-11T07:05:20.945Z,59.63
2019-03-11T07:07:49.607Z,59.71
2019-03-11T07:10:18.223Z,59.34
2019-03-11T07:12:46.617Z,59.27
2019-03-11T07:15:16.234Z,59.27
2019-03-11T07:17:44.958Z,59.26
2019-03-11T07:20:18.509Z,59.08
2019-03-11T07:22:46.909Z,58.48
2019-03-11T07:25:15.432Z,58.61
2019-03-11T07:27:43.817Z,58.30
2019-03-11T07:30:22.562Z,57.91
2019-03-11T07:32:50.948Z,57.43
2019-03-11T07:35:19.365Z,58.03
2019-03-11T07:37:47.752Z,58.03
2019-03-11T07:40:28.529Z,56.75
2019-03-11T07:42:47.897Z,57.40
2019-03-11T07:45:17.027Z,57.39
2019-03-11T07:47:45.482Z,57.37
2019-03-11T07:50:15.808Z,56.35
2019-03-11T07:52:44.210Z,57.12
2019-03-11T07:55:13.644Z,66.89
2019-03-11T07:57:42.756Z,71.33
2019-03-11T08:00:18.255Z,74.46
2019-03-11T08:02:46.642Z,76.57
2019-03-11T08:05:15.191Z,78.03
2019-03-11T08:07:43.576Z,78.47
2019-03-11T08:10:25.216Z,78.89
2019-03-11T08:12:53.671Z,78.65
2019-03-11T08:15:22.122Z,78.60
2019-03-11T08:17:50.576Z,78.76
2019-03-11T08:20:18.966Z,78.24
2019-03-11T08:22:47.370Z,78.02
2019-03-11T08:25:16.295Z,77.38
2019-03-11T08:27:44.752Z,77.59
2019-03-11T08:30:15.906Z,76.94
2019-03-11T08:32:44.349Z,76.78
2019-03-11T08:35:13.008Z,76.66
2019-03-11T08:37:41.453Z,76.23
2019-03-11T08:40:19.494Z,76.29
2019-03-11T08:42:47.935Z,76.08
2019-03-11T08:45:17.550Z,75.68
2019-03-11T08:47:45.998Z,74.90
2019-03-11T08:50:16.199Z,75.37
2019-03-11T08:52:44.656Z,75.60
2019-03-11T08:55:13.580Z,75.53
2019-03-11T08:57:41.967Z,76.11
2019-03-11T09:00:13.361Z,75.01
2019-03-11T09:02:41.750Z,75.80
2019-03-11T09:05:11.975Z,75.19
2019-03-11T09:07:40.423Z,75.31
2019-03-11T09:10:14.419Z,74.93
2019-03-11T09:12:42.878Z,74.66
2019-03-11T09:15:15.948Z,75.37
2019-03-11T09:17:44.343Z,74.01
2019-03-11T09:20:14.844Z,73.17
2019-03-11T09:22:43.273Z,73.04
2019-03-11T09:25:14.228Z,71.34
2019-03-11T09:27:42.616Z,71.98
2019-03-11T09:30:14.083Z,71.62
2019-03-11T09:32:42.469Z,72.32
2019-03-11T09:35:10.915Z,72.62
2019-03-11T09:37:39.297Z,73.92
2019-03-11T09:40:10.930Z,75.50
2019-03-11T09:42:39.320Z,76.41
2019-03-11T09:45:13.359Z,77.17
2019-03-11T09:47:41.749Z,77.98
2019-03-11T09:50:12.367Z,78.33
2019-03-11T09:52:40.819Z,78.70
2019-03-11T09:55:17.836Z,78.99
2019-03-11T09:57:46.223Z,79.01
2019-03-11T10:00:22.718Z,78.82
2019-03-11T10:02:53.147Z,78.35
2019-03-11T10:05:21.272Z,77.13
2019-03-11T10:07:49.806Z,77.10
2019-03-11T10:10:22.688Z,77.41
2019-03-11T10:12:51.126Z,77.26
2019-03-11T10:15:20.456Z,76.43
2019-03-11T10:17:48.850Z,76.06
2019-03-11T10:20:18.291Z,76.52
2019-03-11T10:22:46.808Z,76.02
2019-03-11T10:25:17.291Z,75.09
2019-03-11T10:27:45.823Z,75.38
2019-03-11T10:30:21.951Z,74.86
2019-03-11T10:32:50.332Z,74.13
2019-03-11T10:35:31.288Z,73.96
2019-03-11T10:37:49.669Z,75.08
2019-03-11T10:40:32.148Z,76.22
2019-03-11T10:43:00.683Z,75.98
2019-03-11T10:45:31.634Z,75.87
2019-03-11T10:47:59.245Z,76.05
2019-03-11T10:50:27.626Z,76.69
2019-03-11T10:52:56.010Z,76.34
2019-03-11T10:55:25.154Z,76.21
2019-03-11T10:57:53.887Z,76.28
2019-03-11T11:00:31.051Z,76.40
2019-03-11T11:02:59.502Z,77.01
2019-03-11T11:05:28.033Z,76.97
2019-03-11T11:07:56.477Z,76.93
2019-03-11T11:10:24.858Z,77.29
2019-03-11T11:12:53.252Z,76.70
2019-03-11T11:15:25.228Z,76.87
2019-03-11T11:17:53.696Z,76.78
2019-03-11T11:20:23.344Z,76.22
2019-03-11T11:22:52.749Z,76.27
2019-03-11T11:25:25.869Z,76.10
2019-03-11T11:27:54.322Z,74.67
2019-03-11T11:30:24.747Z,73.14
2019-03-11T11:32:53.428Z,72.31
2019-03-11T11:35:22.252Z,72.68
2019-03-11T11:37:50.967Z,69.33
2019-03-11T11:40:25.662Z,68.50
2019-03-11T11:42:54.310Z,70.01
2019-03-11T11:45:24.745Z,67.90
2019-03-11T11:47:53.197Z,68.38
2019-03-11T11:50:24.797Z,70.48
2019-03-11T11:52:53.527Z,71.62
2019-03-11T11:55:22.743Z,71.99
2019-03-11T11:57:51.681Z,71.55
2019-03-11T12:00:25.733Z,71.49
2019-03-11T12:02:54.108Z,72.28
2019-03-11T12:05:22.569Z,71.84
2019-03-11T12:07:51.093Z,73.92
2019-03-11T12:10:22.520Z,72.95
2019-03-11T12:12:50.966Z,73.79
2019-03-11T12:15:19.287Z,74.02
2019-03-11T12:17:47.672Z,74.76
2019-03-11T12:20:29.173Z,73.52
2019-03-11T12:22:57.719Z,73.29
2019-03-11T12:25:26.198Z,74.49
2019-03-11T12:27:55.019Z,74.89
2019-03-11T12:30:28.150Z,74.91
2019-03-11T12:32:56.757Z,75.31
2019-03-11T12:35:25.373Z,73.72
2019-03-11T12:37:53.824Z,73.88
2019-03-11T12:40:22.380Z,74.37
2019-03-11T12:42:51.028Z,74.20
2019-03-11T12:45:23.385Z,73.38
2019-03-11T12:47:51.833Z,74.31
2019-03-11T12:50:24.165Z,73.51
2019-03-11T12:52:52.550Z,73.03
2019-03-11T12:55:21.795Z,70.82
2019-03-11T12:57:50.383Z,68.60
2019-03-11T13:00:20.042Z,69.55
2019-03-11T13:02:48.455Z,67.98
2019-03-11T13:05:17.271Z,66.44
2019-03-11T13:07:45.815Z,67.32
2019-03-11T13:10:19.761Z,66.47
2019-03-11T13:12:48.568Z,63.75
2019-03-11T13:15:17.495Z,64.32
2019-03-11T13:17:46.321Z,62.18
2019-03-11T13:20:17.741Z,61.92
2019-03-11T13:22:48.290Z,62.38
2019-03-11T13:25:16.693Z,60.83
2019-03-11T13:27:45.155Z,62.30
2019-03-11T13:30:15.521Z,61.97
2019-03-11T13:32:43.906Z,60.43
2019-03-11T13:35:13.102Z,59.20
2019-03-11T13:37:41.482Z,58.62
2019-03-11T13:40:11.015Z,59.04
2019-03-11T13:42:39.398Z,58.07
2019-03-11T13:45:13.206Z,58.01
2019-03-11T13:47:41.668Z,59.00
2019-03-11T13:50:19.513Z,57.77
2019-03-11T13:52:47.977Z,59.81
2019-03-11T13:55:19.072Z,59.15
2019-03-11T13:57:47.896Z,59.18
2019-03-11T14:00:22.112Z,62.88
2019-03-11T14:02:50.614Z,64.30
2019-03-11T14:05:19.109Z,65.68
2019-03-11T14:07:48.558Z,67.31
2019-03-11T14:10:17.477Z,66.05
2019-03-11T14:12:45.864Z,66.69
2019-03-11T14:15:16.776Z,67.70
2019-03-11T14:17:45.328Z,66.50
2019-03-11T14:20:14.667Z,66.76
2019-03-11T14:22:43.062Z,64.36
2019-03-11T14:25:13.484Z,64.58
2019-03-11T14:27:41.870Z,64.10
2019-03-11T14:30:16.135Z,63.72
2019-03-11T14:32:44.540Z,62.90
2019-03-11T14:35:13.458Z,63.40
2019-03-11T14:37:41.857Z,61.70
2019-03-11T14:40:18.175Z,61.74
2019-03-11T14:42:46.625Z,62.02
2019-03-11T14:45:19.715Z,60.97
2019-03-11T14:47:48.167Z,61.41
2019-03-11T14:50:17.901Z,61.12
2019-03-11T14:52:46.345Z,61.41
2019-03-11T14:55:15.260Z,62.08
2019-03-11T14:57:43.712Z,65.00
2019-03-11T15:00:18.522Z,65.83
2019-03-11T15:02:47.260Z,67.77
2019-03-11T15:05:17.898Z,68.64
2019-03-11T15:07:46.609Z,69.11
2019-03-11T15:10:17.000Z,69.45
2019-03-11T15:12:45.415Z,69.25
2019-03-11T15:15:16.668Z,69.13
2019-03-11T15:17:45.199Z,68.01
2019-03-11T15:20:13.855Z,69.24
2019-03-11T15:22:42.285Z,68.85
2019-03-11T15:25:12.312Z,68.67
2019-03-11T15:27:40.863Z,67.28
2019-03-11T15:30:12.430Z,67.89
2019-03-11T15:32:40.813Z,68.28
2019-03-11T15:35:10.339Z,67.91
2019-03-11T15:37:38.739Z,67.51
2019-03-11T15:40:10.120Z,67.57
2019-03-11T15:42:38.506Z,66.80
2019-03-11T15:45:09.701Z,66.30
2019-03-11T15:47:38.079Z,65.22
2019-03-11T15:50:09.509Z,64.21
2019-03-11T15:52:37.889Z,65.40
2019-03-11T15:55:09.811Z,66.14
2019-03-11T15:57:39.196Z,65.13
2019-03-11T16:00:10.880Z,64.88
2019-03-11T16:02:39.263Z,65.10
2019-03-11T16:05:07.710Z,65.54
2019-03-11T16:07:36.090Z,66.44
2019-03-11T16:10:16.256Z,66.54
2019-03-11T16:12:37.385Z,67.76
2019-03-11T16:15:07.811Z,68.55
2019-03-11T16:17:36.200Z,68.23
2019-03-11T16:20:12.834Z,70.19
2019-03-11T16:22:41.214Z,71.01
2019-03-11T16:25:11.034Z,70.95
2019-03-11T16:27:39.490Z,71.04
2019-03-11T16:30:24.816Z,71.51
2019-03-11T16:32:59.400Z,70.24
2019-03-11T16:35:25.158Z,70.84
2019-03-11T16:37:53.540Z,71.28
2019-03-11T16:40:21.999Z,71.00
2019-03-11T16:42:50.411Z,71.17
2019-03-11T16:45:19.929Z,69.92
2019-03-11T16:47:48.881Z,70.19
2019-03-11T16:50:29.404Z,69.80
2019-03-11T16:52:57.777Z,70.22
2019-03-11T16:55:30.516Z,70.42
2019-03-11T16:57:59.865Z,70.25
2019-03-11T17:00:35.742Z,70.19
2019-03-11T17:03:04.131Z,69.68
2019-03-11T17:05:32.647Z,69.64
2019-03-11T17:08:01.021Z,69.94
2019-03-11T17:10:29.476Z,69.29
2019-03-11T17:12:59.272Z,69.65
2019-03-11T17:15:27.652Z,69.63
2019-03-11T17:17:56.044Z,70.00
2019-03-11T17:20:24.502Z,69.98
2019-03-11T17:22:52.876Z,69.46
2019-03-11T17:25:21.290Z,69.48
2019-03-11T17:27:49.666Z,69.86
2019-03-11T17:30:20.365Z,69.82
2019-03-11T17:32:48.815Z,69.90
2019-03-11T17:35:17.550Z,69.12
2019-03-11T17:37:46.202Z,68.05
2019-03-11T17:40:19.041Z,68.28
2019-03-11T17:42:47.809Z,67.97
2019-03-11T17:45:16.668Z,68.19
2019-03-11T17:47:45.154Z,66.91
2019-03-11T17:50:19.062Z,66.89
2019-03-11T17:52:47.440Z,66.93
2019-03-11T17:55:17.278Z,67.54
2019-03-11T17:57:45.802Z,67.00
2019-03-11T18:00:21.096Z,66.77
2019-03-11T18:02:49.544Z,67.05
2019-03-11T18:05:18.137Z,65.90
2019-03-11T18:07:46.598Z,64.64
2019-03-11T18:10:15.151Z,64.61
2019-03-11T18:12:43.620Z,64.89
2019-03-11T18:15:13.539Z,64.96
2019-03-11T18:17:42.054Z,64.41
2019-03-11T18:20:20.638Z,65.04
2019-03-11T18:22:49.272Z,65.78
2019-03-11T18:25:18.812Z,65.54
2019-03-11T18:27:47.197Z,66.30
2019-03-11T18:30:23.091Z,65.52
2019-03-11T18:32:51.471Z,64.72
2019-03-11T18:35:19.989Z,63.60
2019-03-11T18:37:48.430Z,63.99
2019-03-11T18:40:18.042Z,64.02
2019-03-11T18:42:46.671Z,64.48
2019-03-11T18:45:15.787Z,63.91
2019-03-11T18:47:44.232Z,63.78
2019-03-11T18:50:15.614Z,64.42
2019-03-11T18:52:44.015Z,64.63
2019-03-11T18:55:12.544Z,64.38
2019-03-11T18:57:40.912Z,64.30
2019-03-11T19:00:15.165Z,64.23
2019-03-11T19:02:43.554Z,64.50
2019-03-11T19:05:17.696Z,64.62
2019-03-11T19:07:46.156Z,65.44
2019-03-11T19:10:15.696Z,65.06
2019-03-11T19:12:44.144Z,65.02
2019-03-11T19:15:20.708Z,64.79
2019-03-11T19:17:49.160Z,64.54
2019-03-11T19:20:22.940Z,65.13
2019-03-11T19:22:51.432Z,64.35
2019-03-11T19:25:19.832Z,64.37
2019-03-11T19:27:49.177Z,65.09
2019-03-11T19:30:22.875Z,65.61
2019-03-11T19:32:51.231Z,65.86
2019-03-11T19:35:20.173Z,65.67
2019-03-11T19:37:48.673Z,65.70
2019-03-11T19:40:19.397Z,65.09
2019-03-11T19:42:47.862Z,66.11
2019-03-11T19:45:17.018Z,66.06
2019-03-11T19:47:45.568Z,65.39
2019-03-11T19:50:16.914Z,65.02
2019-03-11T19:52:57.217Z,64.73
2019-03-11T19:55:15.652Z,63.95
2019-03-11T19:57:44.191Z,64.41
2019-03-11T20:00:18.534Z,64.27
2019-03-11T20:02:47.079Z,63.99
2019-03-11T20:05:18.539Z,63.78
2019-03-11T20:07:46.988Z,64.10
2019-03-11T20:10:16.040Z,64.37
2019-03-11T20:12:44.491Z,63.87
2019-03-11T20:15:13.494Z,62.97
2019-03-11T20:17:41.932Z,63.41
2019-03-11T20:20:15.469Z,63.13
2019-03-11T20:22:43.951Z,63.19
2019-03-11T20:25:15.028Z,62.75
2019-03-11T20:27:43.407Z,62.81
2019-03-11T20:30:17.497Z,64.04
2019-03-11T20:32:45.937Z,62.60
2019-03-11T20:35:17.319Z,62.80
2019-03-11T20:37:44.560Z,62.83
2019-03-11T20:40:13.381Z,63.07
2019-03-11T20:42:41.912Z,62.91
2019-03-11T20:45:15.065Z,62.56
2019-03-11T20:47:43.418Z,62.48
2019-03-11T20:50:13.590Z,62.72
2019-03-11T20:52:41.943Z,62.06
2019-03-11T20:55:15.752Z,62.93
2019-03-11T20:57:44.176Z,62.61
2019-03-11T21:00:20.195Z,62.33
2019-03-11T21:02:48.850Z,62.46
2019-03-11T21:05:21.299Z,62.10
2019-03-11T21:07:50.559Z,62.54
2019-03-11T21:10:19.327Z,63.08
2019-03-11T21:12:47.801Z,63.31
2019-03-11T21:15:16.812Z,64.21
2019-03-11T21:17:45.419Z,64.08
2019-03-11T21:20:15.302Z,64.58
2019-03-11T21:22:43.731Z,64.32
2019-03-11T21:25:21.977Z,64.47
2019-03-11T21:27:51.318Z,64.55
2019-03-11T21:30:22.919Z,64.66
2019-03-11T21:32:52.730Z,64.39
2019-03-11T21:35:21.205Z,64.49
2019-03-11T21:37:49.638Z,64.82
2019-03-11T21:40:24.577Z,64.57
2019-03-11T21:42:53.145Z,64.29
2019-03-11T21:45:33.471Z,64.31
2019-03-11T21:47:52.774Z,64.02
2019-03-11T21:50:28.378Z,63.83
2019-03-11T21:52:56.759Z,63.53
2019-03-11T21:55:25.133Z,63.13
2019-03-11T21:57:53.635Z,62.69
2019-03-11T22:00:33.357Z,63.14
2019-03-11T22:02:53.754Z,63.61
2019-03-11T22:05:22.195Z,64.64
2019-03-11T22:07:50.647Z,65.31
2019-03-11T22:10:19.264Z,65.38
2019-03-11T22:12:47.863Z,66.21
2019-03-11T22:15:19.290Z,66.70
2019-03-11T22:17:48.660Z,67.15
2019-03-11T22:20:17.679Z,66.96
2019-03-11T22:22:46.062Z,67.29
2019-03-11T22:25:18.424Z,67.33
2019-03-11T22:27:46.805Z,67.58
2019-03-11T22:30:25.319Z,67.73
2019-03-11T22:32:54.652Z,67.52
2019-03-11T22:35:23.890Z,66.57
2019-03-11T22:37:52.284Z,67.27
2019-03-11T22:40:20.919Z,66.95
2019-03-11T22:42:49.358Z,66.85
2019-03-11T22:45:22.213Z,66.68
2019-03-11T22:47:52.792Z,65.87
2019-03-11T22:50:21.738Z,65.51
2019-03-11T22:52:51.185Z,64.42
2019-03-11T22:55:19.972Z,63.38
2019-03-11T22:57:48.476Z,62.84
2019-03-11T23:00:41.549Z,63.22
2019-03-11T23:03:10.680Z,63.67
2019-03-11T23:05:39.057Z,65.44
2019-03-11T23:08:07.453Z,66.08
2019-03-11T23:10:35.826Z,67.50
2019-03-11T23:13:04.284Z,69.60
2019-03-11T23:15:32.662Z,70.62
2019-03-11T23:18:01.050Z,71.48
2019-03-11T23:20:29.493Z,72.14
2019-03-11T23:22:57.830Z,72.56
2019-03-11T23:25:26.208Z,73.08
2019-03-11T23:27:54.659Z,73.25
2019-03-11T23:30:23.042Z,73.65
2019-03-11T23:32:51.431Z,73.49
2019-03-11T23:35:19.815Z,73.95
2019-03-11T23:37:48.199Z,73.88
2019-03-11T23:40:16.590Z,74.03
2019-03-11T23:42:45.003Z,74.13
2019-03-11T23:45:13.550Z,73.99
2019-03-11T23:47:41.964Z,74.02
2019-03-11T23:50:11.899Z,74.15
2019-03-11T23:52:40.367Z,74.07
2019-03-11T23:55:12.566Z,73.71
2019-03-11T23:57:40.948Z,73.69
